Time;durP1;ratioP1;P1;durP2;ratioP2;P2;SDS_P1;SDS_P2;PMS_P1;PMS_P2;Temp;Humidity;BMP_temperature;BMP_pressure;BME280_temperature;BME280_humidity;BME280_pressure;Samples;Min_cycle;Max_cycle;Signal;HPM_P1;HPM_P2
2023/02/15 00:01:28;;;;;;;51.00;30.00;;;;;;;3.00;84.90;100286.45;437477;1250;99205;-40
2023/02/15 00:11:42;;;;;;;35.60;23.40;;;;;;;2.98;84.74;100278.45;437466;1250;110813;-41
2023/02/15 00:21:51;;;;;;;32.90;22.30;;;;;;;3.07;84.87;100267.98;437462;1247;107218;-41
2023/02/15 00:31:58;;;;;;;44.80;26.30;;;;;;;3.12;84.98;100253.30;437528;1248;99228;-41
2023/02/15 00:42:05;;;;;;;47.90;26.30;;;;;;;3.12;85.02;100245.32;437552;1250;108204;-41
2023/02/15 00:52:12;;;;;;;47.80;28.50;;;;;;;3.10;85.08;100243.56;437443;1247;99218;-41
2023/02/15 01:02:18;;;;;;;47.70;28.80;;;;;;;2.96;84.93;100230.72;437617;1250;111863;-40
2023/02/15 01:12:26;;;;;;;35.70;23.20;;;;;;;2.79;84.64;100218.31;437534;1247;106224;-41
2023/02/15 01:22:33;;;;;;;32.70;23.40;;;;;;;2.82;84.74;100213.02;437509;1248;98014;-41
2023/02/15 01:32:42;;;;;;;44.70;26.90;;;;;;;2.94;85.02;100201.84;437445;1250;107657;-40
2023/02/15 01:42:51;;;;;;;53.20;30.70;;;;;;;2.94;85.06;100197.08;437437;1247;99261;-39
2023/02/15 01:52:56;;;;;;;;;;;;;;;2.88;84.98;100181.63;437495;1250;112897;-39
2023/02/15 02:03:04;;;;;;;68.90;36.00;;;;;;;2.66;84.87;100166.45;437569;1260;106825;-41
2023/02/15 02:13:12;;;;;;;44.80;29.70;;;;;;;2.60;84.86;100154.11;438291;1247;99324;-38
2023/02/15 02:23:34;;;;;;;42.40;28.10;;;;;;;2.64;84.91;100144.69;436578;1254;107084;-40
2023/02/15 02:33:50;;;;;;;73.70;38.90;;;;;;;2.70;85.11;100135.27;436334;1254;99225;-40
2023/02/15 02:43:55;;;;;;;87.80;44.60;;;;;;;2.62;85.20;100128.69;436541;1254;110603;-40
2023/02/15 03:04:32;;;;;;;72.00;36.00;;;;;;;2.48;85.34;100120.59;436620;1248;98800;-40
2023/02/15 03:14:41;;;;;;;52.10;31.10;;;;;;;2.40;85.11;100125.31;436520;1248;112036;-38
2023/02/15 03:24:54;;;;;;;50.80;31.50;;;;;;;2.38;85.19;100118.92;436482;1254;106865;-39
2023/02/15 03:35:02;;;;;;;49.30;28.50;;;;;;;2.42;85.25;100126.52;436195;1248;336775;-39
2023/02/15 03:45:12;;;;;;;64.60;35.10;;;;;;;2.30;85.30;100128.66;436474;1261;108892;-40
2023/02/15 03:55:19;;;;;;;63.50;34.60;;;;;;;2.26;85.67;100134.42;436582;1248;97934;-40
2023/02/15 04:05:27;;;;;;;55.90;31.60;;;;;;;2.10;85.20;100136.77;436498;1253;110640;-40
2023/02/15 04:25:58;;;;;;;57.40;31.90;;;;;;;2.22;85.57;100135.66;437444;1250;98086;-40
2023/02/15 04:36:04;;;;;;;68.00;37.90;;;;;;;2.14;85.71;100135.17;437525;1251;108003;-40
2023/02/15 04:46:10;;;;;;;65.60;33.70;;;;;;;2.09;85.92;100137.74;437447;1248;97991;-39
2023/02/15 04:56:17;;;;;;;51.80;30.70;;;;;;;1.97;85.66;100128.45;437492;1251;112062;-40
2023/02/15 05:06:25;;;;;;;49.10;28.50;;;;;;;2.04;85.89;100128.27;437470;1247;108111;-40
2023/02/15 05:16:33;;;;;;;39.10;24.10;;;;;;;2.03;85.80;100131.98;437513;1251;99373;-40
2023/02/15 05:37:05;;;;;;;62.90;31.40;;;;;;;1.82;86.06;100119.14;438317;1251;99060;-39
2023/02/15 05:47:12;;;;;;;47.70;26.20;;;;;;;1.59;86.00;100118.95;437502;1247;112686;-39
2023/02/15 05:57:19;;;;;;;49.60;30.40;;;;;;;1.46;86.13;100111.05;437472;1247;106896;-40
2023/02/15 06:07:26;;;;;;;44.30;28.20;;;;;;;1.50;86.46;100116.92;437547;1247;99231;-40
2023/02/15 06:17:33;;;;;;;79.10;39.90;;;;;;;1.56;86.82;100120.27;437457;1251;107913;-42
2023/02/15 06:27:43;;;;;;;76.40;36.80;;;;;;;1.48;86.64;100120.44;437443;1250;99208;-40
2023/02/15 06:37:51;;;;;;;79.00;40.90;;;;;;;1.35;86.81;100118.65;437547;1251;111431;-40
2023/02/15 06:47:58;;;;;;;62.10;33.40;;;;;;;1.34;86.83;100124.46;437380;1260;107614;-39
2023/02/15 06:58:06;;;;;;;59.40;30.80;;;;;;;1.41;86.83;100121.69;437562;1251;99211;-40
2023/02/15 07:08:13;;;;;;;50.50;28.60;;;;;;;1.37;86.96;100114.77;437447;1251;111825;-40
2023/02/15 07:18:20;;;;;;;52.80;27.80;;;;;;;1.30;87.29;100112.48;437347;1246;107670;-40
2023/02/15 07:28:28;;;;;;;70.40;35.60;;;;;;;1.16;87.55;100104.67;437448;1250;97959;-39
2023/02/15 07:38:38;;;;;;;57.80;31.10;;;;;;;1.05;88.13;100103.55;437505;1250;113588;-40
2023/02/15 07:48:46;;;;;;;61.90;33.80;;;;;;;1.15;88.10;100101.21;437557;1250;106459;-39
2023/02/15 08:09:02;;;;;;;52.30;26.40;;;;;;;1.35;88.06;100075.88;439237;1250;107965;-39
2023/02/15 08:19:09;;;;;;;75.40;33.90;;;;;;;1.30;88.65;100065.23;437461;1250;98566;-40
2023/02/15 08:29:18;;;;;;;61.00;31.30;;;;;;;1.28;89.02;100070.59;438656;1248;111431;-40
2023/02/15 08:39:22;;;;;;;54.20;28.10;;;;;;;1.35;88.94;100069.07;439048;1260;107830;-39
2023/02/15 08:49:30;;;;;;;58.60;32.60;;;;;;;1.30;89.30;100066.48;438940;1250;99197;-40
2023/02/15 08:59:38;;;;;;;62.80;32.60;;;;;;;1.46;89.41;100051.42;438829;1250;108006;-40
2023/02/15 09:09:46;;;;;;;73.50;36.40;;;;;;;1.48;89.48;100048.27;439390;1248;99202;-39
2023/02/15 09:19:54;;;;;;;65.10;33.90;;;;;;;1.46;89.92;100036.51;438768;1250;99239;-40
2023/02/15 09:30:01;;;;;;;66.90;30.70;;;;;;;1.57;89.87;100037.80;437286;1250;109309;-40
2023/02/15 09:40:12;;;;;;;59.50;30.00;;;;;;;1.62;90.03;100035.23;438640;1250;98623;-39
2023/02/15 09:50:22;;;;;;;69.50;32.70;;;;;;;1.72;90.20;100028.89;439140;1250;112030;-40
2023/02/15 10:00:28;;;;;;;68.50;33.70;;;;;;;1.74;90.17;100025.82;438348;1250;108047;-40
2023/02/15 10:10:44;;;;;;;48.00;26.50;;;;;;;1.79;90.10;100011.08;438067;1247;99099;-40
2023/02/15 10:20:52;;;;;;;58.60;28.40;;;;;;;2.02;90.34;100001.36;437409;1247;106934;-40
2023/02/15 10:31:09;;;;;;;53.90;26.70;;;;;;;2.33;90.24;99987.82;437213;1248;98821;-40
2023/02/15 10:41:19;;;;;;;63.30;31.40;;;;;;;2.68;90.01;99981.23;437325;1250;111785;-39
2023/02/15 10:51:24;;;;;;;73.60;36.20;;;;;;;3.16;90.00;99963.33;437391;1247;107900;-41
2023/02/15 11:01:30;;;;;;;48.50;28.20;;;;;;;3.63;89.59;99951.34;437435;1250;98829;-40
2023/02/15 11:11:39;;;;;;;47.20;25.50;;;;;;;4.18;89.09;99939.34;437367;1250;110201;-39
2023/02/15 11:21:46;;;;;;;59.70;32.90;;;;;;;4.55;88.98;99926.89;437363;1250;107720;-40
2023/02/15 11:31:52;;;;;;;71.20;38.30;;;;;;;4.87;88.56;99909.24;437395;1250;99330;-40
2023/02/15 11:41:59;;;;;;;50.20;29.10;;;;;;;5.02;87.74;99893.63;437952;1250;108107;-40
2023/02/15 11:52:11;;;;;;;58.40;31.10;;;;;;;5.39;87.56;99876.52;437278;1247;98830;-40
2023/02/15 12:02:19;;;;;;;70.50;39.90;;;;;;;5.62;86.36;99863.39;437507;1247;109823;-39
2023/02/15 12:12:27;;;;;;;76.50;39.30;;;;;;;5.92;86.77;99845.19;437585;1250;107493;-40
2023/02/15 12:22:36;;;;;;;51.40;29.20;;;;;;;6.23;85.17;99828.82;438871;1248;97928;-41
2023/02/15 12:32:47;;;;;;;55.90;32.20;;;;;;;6.47;84.32;99816.05;437402;1250;107651;-40
2023/02/15 12:42:55;;;;;;;66.00;35.00;;;;;;;6.71;83.59;99811.96;437474;1250;99319;-40
2023/02/15 12:53:06;;;;;;;66.00;34.50;;;;;;;6.88;83.63;99795.76;437370;1247;110832;-40
2023/02/15 13:03:17;;;;;;;69.20;36.30;;;;;;;7.11;82.55;99786.41;437391;1250;107833;-40
2023/02/15 13:13:24;;;;;;;59.70;32.50;;;;;;;7.27;82.49;99765.48;437378;1247;99211;-40
2023/02/15 13:23:32;;;;;;;47.10;28.80;;;;;;;7.54;82.17;99758.94;437494;1250;109463;-39
2023/02/15 13:33:47;;;;;;;50.30;29.20;;;;;;;7.73;81.68;99752.25;437444;1247;99224;-38
2023/02/15 13:43:53;;;;;;;48.40;28.20;;;;;;;7.86;80.72;99740.95;437335;1247;111496;-40
2023/02/15 13:54:03;;;;;;;51.50;28.00;;;;;;;7.96;79.24;99730.48;437437;1250;107404;-40
2023/02/15 14:04:46;;;;;;;56.70;30.00;;;;;;;8.04;76.62;99727.81;437491;1250;97985;-39
2023/02/15 14:15:01;;;;;;;54.60;30.80;;;;;;;8.04;77.15;99720.23;437160;1247;112788;-41
2023/02/15 14:35:26;;;;;;;53.50;33.00;;;;;;;7.95;77.24;99706.94;437570;1250;120557;-39
2023/02/15 14:45:43;;;;;;;67.60;39.20;;;;;;;7.85;77.30;99702.83;437571;1250;108663;-40
2023/02/15 14:56:17;;;;;;;55.00;30.20;;;;;;;7.88;76.70;99693.73;437417;1248;99219;-40
2023/02/15 15:06:24;;;;;;;49.00;26.00;;;;;;;7.89;76.22;99686.24;437500;1247;112350;-40
2023/02/15 15:26:54;;;;;;;60.90;31.10;;;;;;;7.54;76.69;99675.44;437346;1250;349154;-39
2023/02/15 15:37:37;;;;;;;75.90;38.00;;;;;;;7.31;76.64;99675.52;437668;1250;107276;-40
2023/02/15 15:48:03;;;;;;;97.80;50.40;;;;;;;6.90;76.45;99674.46;437293;1250;97918;-40
2023/02/15 15:58:18;;;;;;;77.00;40.20;;;;;;;6.42;76.31;99673.38;437610;1250;111948;-41
2023/02/15 16:08:30;;;;;;;69.20;34.90;;;;;;;5.92;76.41;99675.27;437547;1250;108454;-40
2023/02/15 16:18:42;;;;;;;74.10;36.30;;;;;;;5.39;76.56;99672.59;437590;1247;99266;-39
2023/02/15 16:28:49;;;;;;;87.80;42.60;;;;;;;4.92;76.68;99666.64;437585;1250;111168;-40
2023/02/15 16:59:22;;;;;;;116.80;53.10;;;;;;;3.71;77.04;99654.97;437590;1250;112076;-40
2023/02/15 17:09:29;;;;;;;181.80;71.10;;;;;;;3.42;77.15;99655.91;437572;1250;108733;-40
2023/02/15 17:19:47;;;;;;;171.90;71.10;;;;;;;3.11;77.49;99651.95;437530;1248;119086;-39
2023/02/15 17:29:58;;;;;;;189.50;78.20;;;;;;;2.66;77.53;99651.50;437527;1247;108099;-40
2023/02/15 17:40:05;;;;;;;210.10;84.30;;;;;;;2.29;77.76;99653.95;437645;1250;98824;-39
2023/02/15 17:50:15;;;;;;;212.10;89.30;;;;;;;1.97;78.00;99641.45;437523;1250;111266;-40
2023/02/15 18:21:10;;;;;;;155.60;74.90;;;;;;;1.65;78.75;99641.08;437443;1247;111095;-39
2023/02/15 18:31:19;;;;;;;221.90;103.10;;;;;;;1.86;79.23;99636.27;438491;1250;109277;-39
2023/02/15 18:41:27;;;;;;;217.00;95.80;;;;;;;1.92;79.32;99627.01;437578;1247;99259;-40
2023/02/15 19:11:46;;;;;;;92.00;46.20;;;;;;;2.11;79.76;99588.73;437376;1247;98070;-40
2023/02/15 19:21:53;;;;;;;89.60;42.30;;;;;;;2.29;79.83;99575.65;437382;1248;112099;-39
2023/02/15 19:32:00;;;;;;;97.30;45.60;;;;;;;2.43;79.93;99561.52;437504;1248;107586;-40
2023/02/15 19:42:10;;;;;;;119.30;53.50;;;;;;;2.40;80.09;99549.31;437473;1250;99330;-40
2023/02/15 19:52:16;;;;;;;81.80;40.60;;;;;;;2.35;80.20;99546.68;437468;1247;107294;-40
2023/02/15 20:02:23;;;;;;;77.10;38.80;;;;;;;2.35;80.40;99537.64;437559;1250;98907;-39
2023/02/15 20:12:31;;;;;;;81.90;40.10;;;;;;;2.34;80.57;99533.04;437581;1250;111090;-40
2023/02/15 20:22:40;;;;;;;95.90;46.70;;;;;;;2.31;80.78;99525.36;437649;1247;107731;-40
2023/02/15 20:42:56;;;;;;;73.00;37.30;;;;;;;2.13;80.99;99528.33;437580;1251;111402;-40
2023/02/15 20:53:03;;;;;;;58.90;35.20;;;;;;;2.13;81.14;99518.06;438044;1248;107505;-40
2023/02/15 21:03:10;;;;;;;62.70;34.30;;;;;;;2.15;81.23;99513.44;438708;1260;98578;-38
2023/02/15 21:13:19;;;;;;;81.40;39.40;;;;;;;2.15;81.35;99506.84;437483;1248;107583;-39
2023/02/15 21:23:30;;;;;;;88.20;43.00;;;;;;;2.06;81.55;99508.02;437508;1260;99256;-39
2023/02/15 21:33:37;;;;;;;92.90;42.60;;;;;;;1.93;81.56;99510.43;438386;1250;112098;-40
2023/02/15 21:54:10;;;;;;;65.60;34.30;;;;;;;1.86;81.46;99494.23;439347;1250;97911;-40
2023/02/15 22:04:23;;;;;;;64.00;33.60;;;;;;;1.84;81.64;99489.71;438418;1253;111238;-39
2023/02/15 22:24:43;;;;;;;93.90;42.50;;;;;;;1.59;81.80;99489.77;439678;1250;97993;-40
2023/02/15 22:34:51;;;;;;;63.90;32.60;;;;;;;1.40;81.75;99493.88;439833;1248;110852;-39
2023/02/15 22:44:59;;;;;;;57.00;31.80;;;;;;;1.35;81.90;99475.30;437536;1260;109057;-40
2023/02/15 22:55:04;;;;;;;71.50;34.40;;;;;;;1.26;81.99;99470.60;437430;1248;99234;-40
2023/02/15 23:05:15;;;;;;;64.90;33.60;;;;;;;1.20;82.24;99465.08;437505;1251;110444;-39
2023/02/15 23:15:23;;;;;;;86.00;42.40;;;;;;;1.07;82.57;99452.19;437599;1247;107349;-39
2023/02/15 23:25:30;;;;;;;97.30;43.60;;;;;;;0.91;82.68;99449.66;437667;1250;99215;-41
2023/02/15 23:35:38;;;;;;;71.30;36.10;;;;;;;0.83;82.82;99439.59;439019;1251;112970;-40
2023/02/15 23:45:45;;;;;;;66.90;35.30;;;;;;;0.76;82.91;99438.69;437749;1247;107470;-40
2023/02/15 23:55:52;;;;;;;66.60;33.10;;;;;;;0.74;83.06;99427.95;437488;1254;97988;-39
